createdAt,value
2022-09-10T00:02:14.237Z,15.55
2022-09-10T00:04:44.618Z,15.52
2022-09-10T00:07:15.171Z,15.60
2022-09-10T00:09:46.097Z,15.56
2022-09-10T00:12:16.412Z,15.46
2022-09-10T00:14:46.796Z,15.43
2022-09-10T00:17:17.179Z,15.48
2022-09-10T00:19:47.622Z,15.39
2022-09-10T00:22:18.007Z,15.36
2022-09-10T00:24:48.418Z,15.38
2022-09-10T00:27:18.705Z,15.34
2022-09-10T00:29:54.311Z,15.31
2022-09-10T00:32:24.630Z,15.24
2022-09-10T00:34:55.861Z,15.27
2022-09-10T00:37:26.339Z,15.32
2022-09-10T00:39:56.896Z,15.26
2022-09-10T00:42:27.564Z,15.29
2022-09-10T00:45:01.028Z,15.28
2022-09-10T00:47:37.563Z,15.20
2022-09-10T00:50:20.122Z,15.21
2022-09-10T00:52:53.309Z,15.27
2022-09-10T00:55:24.460Z,15.19
2022-09-10T00:57:58.001Z,15.10
2022-09-10T01:00:28.402Z,15.18
2022-09-10T01:03:00.158Z,15.18
2022-09-10T01:05:30.688Z,15.20
2022-09-10T01:08:01.149Z,15.22
2022-09-10T01:10:34.727Z,15.13
2022-09-10T01:13:25.506Z,15.12
2022-09-10T01:15:59.193Z,15.10
2022-09-10T01:18:41.136Z,15.07
2022-09-10T01:21:23.453Z,15.08
2022-09-10T01:24:15.157Z,14.98
2022-09-10T01:27:08.317Z,15.04
2022-09-10T01:29:41.879Z,15.05
2022-09-10T01:32:15.646Z,15.00
2022-09-10T01:34:49.088Z,15.04
2022-09-10T01:37:25.290Z,15.02
2022-09-10T01:39:58.380Z,14.98
2022-09-10T01:42:31.531Z,14.97
2022-09-10T01:45:01.926Z,14.94
2022-09-10T01:48:02.724Z,14.96
2022-09-10T01:51:08.268Z,15.07
2022-09-10T01:54:06.399Z,14.97
2022-09-10T01:56:54.319Z,14.91
2022-09-10T01:59:46.897Z,14.88
2022-09-10T02:02:20.327Z,14.77
2022-09-10T02:04:52.577Z,14.76
2022-09-10T02:07:25.195Z,14.82
2022-09-10T02:09:57.346Z,14.73
2022-09-10T02:12:28.999Z,14.73
2022-09-10T02:14:59.661Z,14.88
2022-09-10T02:17:33.538Z,14.74
2022-09-10T02:20:07.403Z,14.70
2022-09-10T02:22:39.791Z,14.68
2022-09-10T02:25:10.554Z,14.68
2022-09-10T02:27:42.613Z,14.68
2022-09-10T02:30:13.658Z,14.64
2022-09-10T02:32:44.021Z,14.69
2022-09-10T02:35:15.515Z,14.66
2022-09-10T02:37:45.885Z,14.81
2022-09-10T02:40:18.008Z,14.73
2022-09-10T02:42:48.452Z,14.67
2022-09-10T02:45:18.778Z,14.64
2022-09-10T02:47:49.178Z,14.61
2022-09-10T02:50:19.788Z,14.68
2022-09-10T02:52:51.280Z,14.72
2022-09-10T02:55:21.837Z,14.60
2022-09-10T02:57:52.514Z,14.56
2022-09-10T03:00:24.282Z,14.56
2022-09-10T03:03:00.849Z,14.60
2022-09-10T03:05:28.324Z,14.59
2022-09-10T03:07:59.511Z,14.56
2022-09-10T03:10:31.660Z,14.57
2022-09-10T03:13:02.413Z,14.51
2022-09-10T03:15:32.781Z,14.53
2022-09-10T03:18:04.219Z,14.56
2022-09-10T03:20:34.544Z,14.52
2022-09-10T03:23:04.863Z,14.52
2022-09-10T03:25:35.931Z,14.46
2022-09-10T03:28:07.064Z,14.46
2022-09-10T03:30:37.981Z,14.44
2022-09-10T03:33:08.412Z,14.40
2022-09-10T03:35:38.814Z,14.46
2022-09-10T03:38:10.709Z,14.48
2022-09-10T03:40:41.571Z,14.41
2022-09-10T03:43:12.894Z,14.35
2022-09-10T03:45:44.560Z,14.35
2022-09-10T03:48:15.149Z,14.28
2022-09-10T03:50:46.418Z,14.30
2022-09-10T03:53:17.939Z,14.40
2022-09-10T03:55:50.522Z,14.44
2022-09-10T03:58:20.864Z,14.48
2022-09-10T04:00:51.659Z,14.36
2022-09-10T04:03:22.246Z,14.34
2022-09-10T04:05:52.649Z,14.35
2022-09-10T04:08:23.212Z,14.34
2022-09-10T04:10:54.048Z,14.30
2022-09-10T04:13:24.386Z,14.24
2022-09-10T04:15:55.759Z,14.26
2022-09-10T04:18:27.334Z,14.19
2022-09-10T04:20:57.713Z,14.22
2022-09-10T04:23:29.765Z,14.39
2022-09-10T04:26:00.166Z,14.49
2022-09-10T04:28:31.033Z,14.34
2022-09-10T04:31:01.728Z,14.24
2022-09-10T04:33:33.251Z,14.20
2022-09-10T04:36:04.889Z,14.16
2022-09-10T04:38:36.966Z,14.15
2022-09-10T04:41:07.454Z,14.22
2022-09-10T04:43:38.566Z,14.18
2022-09-10T04:46:09.006Z,14.10
2022-09-10T04:48:39.957Z,14.12
2022-09-10T04:51:16.824Z,14.10
2022-09-10T04:53:44.563Z,14.04
2022-09-10T04:56:15.492Z,14.12
2022-09-10T04:58:46.184Z,14.03
2022-09-10T05:01:16.989Z,14.04
2022-09-10T05:03:47.476Z,14.02
2022-09-10T05:06:17.932Z,13.98
2022-09-10T05:08:48.280Z,14.00
2022-09-10T05:11:21.666Z,13.96
2022-09-10T05:13:52.294Z,14.02
2022-09-10T05:16:22.700Z,14.07
2022-09-10T05:18:53.223Z,13.96
2022-09-10T05:21:23.727Z,13.98
2022-09-10T05:23:55.872Z,14.02
2022-09-10T05:26:27.770Z,14.06
2022-09-10T05:28:59.611Z,14.22
2022-09-10T05:31:30.112Z,14.16
2022-09-10T05:34:01.137Z,14.20
2022-09-10T05:36:34.829Z,14.16
2022-09-10T05:39:05.853Z,14.24
2022-09-10T05:41:37.239Z,14.33
2022-09-10T05:44:08.846Z,14.30
2022-09-10T05:46:40.446Z,14.32
2022-09-10T05:49:12.547Z,14.33
2022-09-10T05:51:42.943Z,14.42
2022-09-10T05:54:13.344Z,14.37
2022-09-10T05:56:43.910Z,14.41
2022-09-10T05:59:16.313Z,14.66
2022-09-10T06:01:46.681Z,14.59
2022-09-10T06:04:18.645Z,14.54
2022-09-10T06:06:49.605Z,14.56
2022-09-10T06:09:19.848Z,14.56
2022-09-10T06:11:50.658Z,14.66
2022-09-10T06:14:21.113Z,14.70
2022-09-10T06:16:52.925Z,14.72
2022-09-10T06:19:23.299Z,14.68
2022-09-10T06:21:54.055Z,14.81
2022-09-10T06:24:25.810Z,14.82
2022-09-10T06:26:57.574Z,14.86
2022-09-10T06:29:29.349Z,14.96
2022-09-10T06:32:00.374Z,15.02
2022-09-10T06:34:31.116Z,15.06
2022-09-10T06:37:03.318Z,15.10
2022-09-10T06:39:33.826Z,15.04
2022-09-10T06:42:04.614Z,15.16
2022-09-10T06:44:35.002Z,15.30
2022-09-10T06:49:38.681Z,15.27
2022-09-10T06:52:10.637Z,15.35
2022-09-10T06:54:41.084Z,15.28
2022-09-10T06:57:11.640Z,15.32
2022-09-10T06:59:43.313Z,15.45
2022-09-10T07:02:15.279Z,15.42
2022-09-10T07:04:45.700Z,15.52
2022-09-10T07:07:15.994Z,15.51
2022-09-10T07:09:46.400Z,15.59
2022-09-10T07:12:17.396Z,15.74
2022-09-10T07:14:48.520Z,15.73
2022-09-10T07:17:20.589Z,15.85
2022-09-10T07:19:50.973Z,15.88
2022-09-10T07:22:21.566Z,15.90
2022-09-10T07:24:53.569Z,15.94
2022-09-10T07:27:23.944Z,16.03
2022-09-10T07:29:54.306Z,16.07
2022-09-10T07:32:24.609Z,16.10
2022-09-10T07:34:55.852Z,16.15
2022-09-10T07:37:26.219Z,16.18
2022-09-10T07:39:56.629Z,16.24
2022-09-10T07:42:29.321Z,16.32
2022-09-10T07:45:00.370Z,16.40
2022-09-10T07:47:30.667Z,16.54
2022-09-10T07:50:01.069Z,16.50
2022-09-10T07:52:31.661Z,16.52
2022-09-10T07:55:02.010Z,16.68
2022-09-10T07:57:34.070Z,16.77
2022-09-10T08:00:06.320Z,16.89
2022-09-10T08:02:36.708Z,16.92
2022-09-10T08:05:08.596Z,16.98
2022-09-10T08:07:40.427Z,17.06
2022-09-10T08:10:11.784Z,17.10
2022-09-10T08:12:42.708Z,17.28
2022-09-10T08:15:13.900Z,17.38
2022-09-10T08:17:44.253Z,17.31
2022-09-10T08:20:14.570Z,17.42
2022-09-10T08:22:45.040Z,17.53
2022-09-10T08:25:15.566Z,17.59
2022-09-10T08:27:45.917Z,17.60
2022-09-10T08:30:16.320Z,17.62
2022-09-10T08:32:47.158Z,17.80
2022-09-10T08:35:17.625Z,17.74
2022-09-10T08:37:48.877Z,17.87
2022-09-10T08:40:19.346Z,17.82
2022-09-10T08:42:52.677Z,18.09
2022-09-10T08:45:26.164Z,18.06
2022-09-10T08:48:10.915Z,18.02
2022-09-10T08:50:44.300Z,18.15
2022-09-10T08:53:34.448Z,18.22
2022-09-10T08:56:07.916Z,18.26
2022-09-10T08:58:47.509Z,18.20
2022-09-10T09:01:23.926Z,18.30
2022-09-10T09:03:57.743Z,18.32
2022-09-10T09:06:34.194Z,18.38
2022-09-10T09:09:05.633Z,18.48
2022-09-10T09:11:44.809Z,18.66
2022-09-10T09:14:18.294Z,18.98
2022-09-10T09:17:27.484Z,18.87
2022-09-10T09:20:18.620Z,19.04
2022-09-10T09:23:09.931Z,19.05
2022-09-10T09:25:49.645Z,19.15
2022-09-10T09:28:39.960Z,19.34
2022-09-10T09:31:16.732Z,19.62
2022-09-10T09:33:49.835Z,19.57
2022-09-10T09:36:24.119Z,19.56
2022-09-10T09:38:55.482Z,19.48
2022-09-10T09:41:28.865Z,19.76
2022-09-10T09:44:20.348Z,19.72
2022-09-10T09:46:50.732Z,19.79
2022-09-10T09:49:21.311Z,19.84
2022-09-10T09:51:51.877Z,19.86
2022-09-10T09:56:59.248Z,19.86
2022-09-10T09:59:32.286Z,19.66
2022-09-10T10:02:09.122Z,19.65
2022-09-10T10:04:42.485Z,19.85
2022-09-10T10:07:12.987Z,19.87
2022-09-10T10:09:44.719Z,20.04
2022-09-10T10:12:20.596Z,20.30
2022-09-10T10:14:51.412Z,20.40
2022-09-10T10:17:33.724Z,20.40
2022-09-10T10:20:15.477Z,20.40
2022-09-10T10:22:49.486Z,20.30
2022-09-10T10:25:42.421Z,20.54
2022-09-10T10:28:22.077Z,20.96
2022-09-10T10:30:55.644Z,21.10
2022-09-10T10:33:28.924Z,21.12
2022-09-10T10:36:08.230Z,21.07
2022-09-10T10:38:50.710Z,21.12
2022-09-10T10:41:32.641Z,21.03
2022-09-10T10:44:27.122Z,20.87
2022-09-10T10:47:24.695Z,21.08
2022-09-10T10:49:58.412Z,20.97
2022-09-10T10:52:46.783Z,20.88
2022-09-10T10:55:26.574Z,20.77
2022-09-10T10:58:18.422Z,20.99
2022-09-10T11:00:54.927Z,21.48
2022-09-10T11:03:36.230Z,21.76
2022-09-10T11:06:09.343Z,21.85
2022-09-10T11:08:59.457Z,22.10
2022-09-10T11:11:32.855Z,22.25
2022-09-10T11:14:17.750Z,22.28
2022-09-10T11:16:59.923Z,22.14
2022-09-10T11:19:35.040Z,22.44
2022-09-10T11:22:23.535Z,22.58
2022-09-10T11:25:00.502Z,22.30
2022-09-10T11:27:43.210Z,22.27
2022-09-10T11:30:17.002Z,23.02
2022-09-10T11:33:13.128Z,25.92
2022-09-10T11:35:55.456Z,28.70
2022-09-10T11:38:45.581Z,30.79
2022-09-10T11:41:22.442Z,32.89
2022-09-10T11:44:14.054Z,33.88
2022-09-10T11:46:47.502Z,34.45
2022-09-10T11:49:24.282Z,35.37
2022-09-10T11:51:55.967Z,34.35
2022-09-10T11:54:34.542Z,33.85
2022-09-10T11:57:31.138Z,31.79
2022-09-10T12:00:14.993Z,27.86
2022-09-10T12:02:48.366Z,26.56
2022-09-10T12:05:24.886Z,25.87
2022-09-10T12:08:13.658Z,25.00
2022-09-10T12:11:04.675Z,23.99
2022-09-10T12:13:39.328Z,22.90
2022-09-10T12:16:13.778Z,22.60
2022-09-10T12:18:47.382Z,22.10
2022-09-10T12:21:39.370Z,21.78
2022-09-10T12:24:27.653Z,22.13
2022-09-10T12:27:00.009Z,22.85
2022-09-10T12:29:40.681Z,22.92
2022-09-10T12:32:23.113Z,22.74
2022-09-10T12:35:30.356Z,22.45
2022-09-10T12:38:37.332Z,22.54
2022-09-10T12:41:27.101Z,22.73
2022-09-10T12:43:59.332Z,22.92
2022-09-10T12:46:31.185Z,22.97
2022-09-10T12:49:07.510Z,22.98
2022-09-10T12:51:52.941Z,23.25
2022-09-10T12:54:37.974Z,23.47
2022-09-10T12:57:40.355Z,23.76
2022-09-10T13:00:22.604Z,23.50
2022-09-10T13:03:01.707Z,23.24
2022-09-10T13:05:41.003Z,23.28
2022-09-10T13:08:20.489Z,22.82
2022-09-10T13:10:59.814Z,22.64
2022-09-10T13:13:38.950Z,22.69
2022-09-10T13:16:12.617Z,22.76
2022-09-10T13:18:43.199Z,22.44
2022-09-10T13:21:28.430Z,22.06
2022-09-10T13:23:59.151Z,21.78
2022-09-10T13:26:37.088Z,21.60
2022-09-10T13:29:28.570Z,21.28
2022-09-10T13:32:20.381Z,21.23
2022-09-10T13:35:21.096Z,21.35
2022-09-10T13:38:23.353Z,22.02
2022-09-10T13:40:59.659Z,21.28
2022-09-10T13:44:01.192Z,21.55
2022-09-10T13:46:40.169Z,21.66
2022-09-10T13:49:34.819Z,21.58
2022-09-10T13:52:08.611Z,21.71
2022-09-10T13:54:42.488Z,21.45
2022-09-10T13:57:24.607Z,21.30
2022-09-10T14:00:00.691Z,20.74
2022-09-10T14:02:42.497Z,20.71
2022-09-10T14:05:34.102Z,20.78
2022-09-10T14:08:10.402Z,20.57
2022-09-10T14:10:55.890Z,20.52
2022-09-10T14:13:49.029Z,20.36
2022-09-10T14:16:26.163Z,20.42
2022-09-10T14:18:59.148Z,20.22
2022-09-10T14:21:30.105Z,20.38
2022-09-10T14:24:00.870Z,20.27
2022-09-10T14:26:34.251Z,20.32
2022-09-10T14:29:25.169Z,19.99
2022-09-10T14:31:55.967Z,19.96
2022-09-10T14:34:34.832Z,19.83
2022-09-10T14:37:25.054Z,19.97
2022-09-10T14:39:56.679Z,19.96
2022-09-10T14:42:29.746Z,19.87
2022-09-10T14:45:00.313Z,20.10
2022-09-10T14:47:35.766Z,20.04
2022-09-10T14:50:25.699Z,20.01
2022-09-10T14:52:56.514Z,19.89
2022-09-10T14:55:30.661Z,19.92
2022-09-10T14:58:01.138Z,19.90
2022-09-10T15:00:31.978Z,19.66
2022-09-10T15:03:03.962Z,19.82
2022-09-10T15:05:34.364Z,19.60
2022-09-10T15:08:04.667Z,19.76
2022-09-10T15:10:35.058Z,19.69
2022-09-10T15:13:07.225Z,19.99
2022-09-10T15:15:37.608Z,20.02
2022-09-10T15:18:17.251Z,20.00
2022-09-10T15:20:47.616Z,19.88
2022-09-10T15:23:19.723Z,19.85
2022-09-10T15:25:52.544Z,19.77
2022-09-10T15:28:22.855Z,19.70
2022-09-10T15:30:53.282Z,19.89
2022-09-10T15:33:24.392Z,19.78
2022-09-10T15:35:54.776Z,19.77
2022-09-10T15:38:25.731Z,19.86
2022-09-10T15:40:59.174Z,19.98
2022-09-10T15:43:29.962Z,19.96
2022-09-10T15:46:02.660Z,19.94
2022-09-10T15:48:36.687Z,19.98
2022-09-10T15:51:13.647Z,19.93
2022-09-10T15:53:45.951Z,19.99
2022-09-10T15:56:16.838Z,20.11
2022-09-10T15:58:56.569Z,20.10
2022-09-10T16:01:31.255Z,20.30
2022-09-10T16:04:05.676Z,20.33
2022-09-10T16:06:39.311Z,20.19
2022-09-10T16:09:12.646Z,20.12
2022-09-10T16:11:45.517Z,20.12
2022-09-10T16:14:17.932Z,20.06
2022-09-10T16:16:49.309Z,20.00
2022-09-10T16:19:20.741Z,19.96
2022-09-10T16:21:52.338Z,19.87
2022-09-10T16:24:22.716Z,19.88
2022-09-10T16:26:53.035Z,19.93
2022-09-10T16:29:23.640Z,19.93
2022-09-10T16:31:54.538Z,20.09
2022-09-10T16:34:25.081Z,20.01
2022-09-10T16:36:55.490Z,20.04
2022-09-10T16:39:25.778Z,19.97
2022-09-10T16:41:59.379Z,19.88
2022-09-10T16:44:30.379Z,19.90
2022-09-10T16:47:01.837Z,19.78
2022-09-10T16:49:32.577Z,19.93
2022-09-10T16:52:03.144Z,19.62
2022-09-10T16:54:33.899Z,19.52
2022-09-10T16:57:07.240Z,19.43
2022-09-10T16:59:37.599Z,19.51
2022-09-10T17:02:08.039Z,19.41
2022-09-10T17:04:38.392Z,19.41
2022-09-10T17:07:09.573Z,19.35
2022-09-10T17:09:40.110Z,19.41
2022-09-10T17:12:10.603Z,19.23
2022-09-10T17:14:42.251Z,19.27
2022-09-10T17:17:13.922Z,19.19
2022-09-10T17:19:44.307Z,19.33
2022-09-10T17:22:14.752Z,19.23
2022-09-10T17:24:46.861Z,19.14
2022-09-10T17:27:17.542Z,19.07
2022-09-10T17:29:48.404Z,19.24
2022-09-10T17:32:18.872Z,19.12
2022-09-10T17:34:50.489Z,18.93
2022-09-10T17:37:20.809Z,18.85
2022-09-10T17:39:55.143Z,18.79
2022-09-10T17:42:25.590Z,18.70
2022-09-10T17:44:55.890Z,18.84
2022-09-10T17:47:27.157Z,18.60
2022-09-10T17:49:58.370Z,18.54
2022-09-10T17:52:28.759Z,18.50
2022-09-10T17:54:59.148Z,18.41
2022-09-10T17:57:29.514Z,18.33
2022-09-10T18:00:00.182Z,18.24
2022-09-10T18:02:31.493Z,18.22
2022-09-10T18:05:01.966Z,18.14
2022-09-10T18:07:32.300Z,18.05
2022-09-10T18:10:03.518Z,18.03
2022-09-10T18:12:33.885Z,18.24
2022-09-10T18:15:04.360Z,18.27
2022-09-10T18:17:34.385Z,18.25
2022-09-10T18:20:05.012Z,18.32
2022-09-10T18:22:35.387Z,18.17
2022-09-10T18:25:06.635Z,18.27
2022-09-10T18:27:37.741Z,18.28
2022-09-10T18:30:08.951Z,18.06
2022-09-10T18:32:39.373Z,17.96
2022-09-10T18:35:09.847Z,17.88
2022-09-10T18:37:40.393Z,17.86
2022-09-10T18:40:12.034Z,17.84
2022-09-10T18:42:46.137Z,17.88
2022-09-10T18:45:14.620Z,17.85
2022-09-10T18:47:45.461Z,17.83
2022-09-10T18:50:15.935Z,17.83
2022-09-10T18:52:46.281Z,17.78
2022-09-10T18:55:16.656Z,17.74
2022-09-10T18:57:47.338Z,17.69
2022-09-10T19:00:17.822Z,17.63
2022-09-10T19:02:48.393Z,17.61
2022-09-10T19:05:19.023Z,17.62
2022-09-10T19:07:49.835Z,17.59
2022-09-10T19:10:21.415Z,17.58
2022-09-10T19:12:51.895Z,17.53
2022-09-10T19:15:22.197Z,17.50
2022-09-10T19:17:53.527Z,17.51
2022-09-10T19:20:25.546Z,17.45
2022-09-10T19:22:55.986Z,17.49
2022-09-10T19:25:26.365Z,17.50
2022-09-10T19:27:57.913Z,17.54
2022-09-10T19:30:30.634Z,17.54
2022-09-10T19:33:00.291Z,17.50
2022-09-10T19:35:30.788Z,17.52
2022-09-10T19:38:08.682Z,17.54
2022-09-10T19:40:33.292Z,17.47
2022-09-10T19:43:03.935Z,17.44
2022-09-10T19:45:35.544Z,17.43
2022-09-10T19:48:05.922Z,17.41
2022-09-10T19:50:37.195Z,17.42
2022-09-10T19:53:07.581Z,17.40
2022-09-10T19:55:37.911Z,17.38
2022-09-10T19:58:08.750Z,17.46
2022-09-10T20:00:46.827Z,17.34
2022-09-10T20:03:12.582Z,17.30
2022-09-10T20:05:42.935Z,17.24
2022-09-10T20:08:13.597Z,17.22
2022-09-10T20:10:47.148Z,17.16
2022-09-10T20:13:17.659Z,17.17
2022-09-10T20:15:49.420Z,17.14
2022-09-10T20:18:20.116Z,17.30
2022-09-10T20:20:51.041Z,17.38
2022-09-10T20:23:21.827Z,17.15
2022-09-10T20:25:52.141Z,17.04
2022-09-10T20:28:22.903Z,16.98
2022-09-10T20:30:53.319Z,16.90
2022-09-10T20:33:23.769Z,16.86
2022-09-10T20:35:54.173Z,16.86
2022-09-10T20:38:24.588Z,16.80
2022-09-10T20:40:54.964Z,16.81
2022-09-10T20:43:25.350Z,16.75
2022-09-10T20:45:57.083Z,16.78
2022-09-10T20:48:28.025Z,16.78
2022-09-10T20:51:00.980Z,16.80
2022-09-10T20:53:34.480Z,16.73
2022-09-10T20:56:10.283Z,16.70
2022-09-10T20:58:40.991Z,16.72
2022-09-10T21:01:19.201Z,16.63
2022-09-10T21:03:53.543Z,16.66
2022-09-10T21:06:26.680Z,16.59
2022-09-10T21:08:57.070Z,16.59
2022-09-10T21:11:30.968Z,16.54
2022-09-10T21:14:03.466Z,16.49
2022-09-10T21:16:39.708Z,16.69
2022-09-10T21:19:16.031Z,16.53
2022-09-10T21:21:48.824Z,16.48
2022-09-10T21:24:22.333Z,16.36
2022-09-10T21:26:53.584Z,16.32
2022-09-10T21:29:24.032Z,16.30
2022-09-10T21:31:56.124Z,16.30
2022-09-10T21:34:26.643Z,16.26
2022-09-10T21:36:57.074Z,16.25
2022-09-10T21:39:27.384Z,16.21
2022-09-10T21:41:58.450Z,16.26
2022-09-10T21:44:28.748Z,16.21
2022-09-10T21:46:59.456Z,16.14
2022-09-10T21:49:29.771Z,16.13
2022-09-10T21:52:00.147Z,16.12
2022-09-10T21:54:30.593Z,16.10
2022-09-10T21:57:00.975Z,16.08
2022-09-10T21:59:31.345Z,16.06
2022-09-10T22:02:01.804Z,16.04
2022-09-10T22:04:32.229Z,16.09
2022-09-10T22:07:04.186Z,16.06
2022-09-10T22:09:34.441Z,16.04
2022-09-10T22:12:05.058Z,15.99
2022-09-10T22:14:35.437Z,16.00
2022-09-10T22:17:05.826Z,16.01
2022-09-10T22:19:36.131Z,15.97
2022-09-10T22:22:06.558Z,15.97
2022-09-10T22:24:36.932Z,15.90
2022-09-10T22:27:07.242Z,15.93
2022-09-10T22:29:37.712Z,15.90
2022-09-10T22:32:08.033Z,15.86
2022-09-10T22:34:38.894Z,15.85
2022-09-10T22:37:09.280Z,15.84
2022-09-10T22:39:40.490Z,15.81
2022-09-10T22:42:11.009Z,15.76
2022-09-10T22:44:41.485Z,15.71
2022-09-10T22:47:11.949Z,15.71
2022-09-10T22:49:42.336Z,15.70
2022-09-10T22:52:12.733Z,15.71
2022-09-10T22:54:43.111Z,15.66
2022-09-10T22:57:13.594Z,15.64
2022-09-10T22:59:44.276Z,15.62
2022-09-10T23:02:15.635Z,15.62
2022-09-10T23:04:45.938Z,15.60
2022-09-10T23:07:16.502Z,15.64
2022-09-10T23:09:46.995Z,15.62
2022-09-10T23:12:19.025Z,15.56
2022-09-10T23:14:49.546Z,15.55
2022-09-10T23:17:22.569Z,15.58
2022-09-10T23:19:51.882Z,15.54
2022-09-10T23:22:22.300Z,15.57
2022-09-10T23:24:52.680Z,15.48
2022-09-10T23:27:23.263Z,15.54
2022-09-10T23:29:53.647Z,15.49
2022-09-10T23:32:23.959Z,15.53
2022-09-10T23:34:54.420Z,15.47
2022-09-10T23:37:25.513Z,15.48
2022-09-10T23:39:56.464Z,15.41
2022-09-10T23:42:27.068Z,15.35
2022-09-10T23:44:57.358Z,15.39
2022-09-10T23:47:27.678Z,15.36
2022-09-10T23:49:58.065Z,15.33
2022-09-10T23:52:29.126Z,15.36
2022-09-10T23:55:00.159Z,15.33
2022-09-10T23:57:30.486Z,15.30
